Time;durP1;ratioP1;P1;durP2;ratioP2;P2;SDS_P1;SDS_P2;PMS_P1;PMS_P2;Temp;Humidity;BMP_temperature;BMP_pressure;BME280_temperature;BME280_humidity;BME280_pressure;Samples;Min_cycle;Max_cycle;Signal;HPM_P1;HPM_P2
2023/07/31 00:01:19;;;;;;;0.50;0.50;;;16.00;99.90;;;;;;4443556;32;20061;-66
2023/07/31 00:03:46;;;;;;;0.30;0.30;;;16.10;99.90;;;;;;4443450;32;20066;-66
2023/07/31 00:06:12;;;;;;;0.93;0.93;;;16.20;99.90;;;;;;4443709;32;20134;-66
2023/07/31 00:08:37;;;;;;;0.88;0.88;;;16.10;99.90;;;;;;4442983;32;20072;-66
2023/07/31 00:11:02;;;;;;;3.50;0.60;;;16.20;99.90;;;;;;4443249;32;20074;-64
2023/07/31 00:13:28;;;;;;;0.30;0.30;;;16.10;99.90;;;;;;4439659;32;20472;-66
2023/07/31 00:15:53;;;;;;;0.20;0.20;;;16.00;99.90;;;;;;4427443;32;20061;-66
2023/07/31 00:18:19;;;;;;;0.30;0.30;;;16.00;99.90;;;;;;4433326;32;20119;-66
2023/07/31 00:20:44;;;;;;;0.30;0.30;;;16.00;99.90;;;;;;4443566;32;20061;-66
2023/07/31 00:23:10;;;;;;;0.30;0.30;;;16.10;99.90;;;;;;4444115;32;20061;-66
2023/07/31 00:25:35;;;;;;;0.50;0.50;;;16.20;99.90;;;;;;4443448;32;20061;-66
2023/07/31 00:28:01;;;;;;;2.25;1.33;;;16.20;99.90;;;;;;4442169;32;20537;-66
2023/07/31 00:30:26;;;;;;;0.30;0.30;;;16.10;99.90;;;;;;4442792;32;20082;-65
2023/07/31 00:32:52;;;;;;;0.40;0.40;;;15.90;99.90;;;;;;4442789;32;20170;-66
2023/07/31 00:35:17;;;;;;;0.40;0.40;;;15.90;99.90;;;;;;4442717;32;20057;-66
2023/07/31 00:37:43;;;;;;;0.40;0.40;;;15.90;99.90;;;;;;4444586;32;20485;-66
2023/07/31 00:40:09;;;;;;;0.50;0.50;;;15.90;99.90;;;;;;4445452;32;20080;-66
2023/07/31 00:42:34;;;;;;;0.30;0.30;;;15.90;99.90;;;;;;4446479;32;20077;-66
2023/07/31 00:44:59;;;;;;;0.37;0.37;;;15.80;99.90;;;;;;4446358;32;20081;-66
2023/07/31 00:47:25;;;;;;;0.40;0.40;;;15.90;99.90;;;;;;4447849;32;20418;-66
2023/07/31 00:49:51;;;;;;;0.30;0.30;;;16.00;99.90;;;;;;4446497;32;20124;-66
2023/07/31 00:52:18;;;;;;;0.40;0.40;;;16.10;99.90;;;;;;4445529;32;20089;-66
2023/07/31 00:54:43;;;;;;;0.40;0.40;;;16.10;99.90;;;;;;4445430;32;20126;-66
2023/07/31 00:57:09;;;;;;;0.40;0.40;;;16.10;99.90;;;;;;4444608;32;20060;-65
2023/07/31 00:59:34;;;;;;;0.30;0.30;;;16.10;99.90;;;;;;4444670;32;20149;-65
2023/07/31 01:02:00;;;;;;;0.32;0.32;;;16.20;99.90;;;;;;4434640;32;20082;-65
2023/07/31 01:04:26;;;;;;;0.30;0.30;;;16.20;99.90;;;;;;4445322;32;20061;-66
2023/07/31 01:07:07;;;;;;;0.40;0.40;;;16.20;99.90;;;;;;4444968;32;20138;-66
2023/07/31 01:09:42;;;;;;;0.45;0.45;;;16.20;99.90;;;;;;4445085;32;20097;-66
2023/07/31 01:12:09;;;;;;;0.40;0.40;;;16.20;99.90;;;;;;4445178;32;20108;-66
2023/07/31 01:14:34;;;;;;;0.47;0.47;;;16.30;99.90;;;;;;4445716;32;20556;-66
2023/07/31 01:17:00;;;;;;;0.30;0.30;;;16.10;99.90;;;;;;4446614;32;20073;-66
2023/07/31 01:19:27;;;;;;;0.30;0.30;;;16.20;99.90;;;;;;4442370;32;20069;-66
2023/07/31 01:22:22;;;;;;;0.37;0.37;;;16.10;99.90;;;;;;4445476;32;20118;-66
2023/07/31 01:25:03;;;;;;;0.30;0.30;;;16.10;99.90;;;;;;4443992;32;20080;-66
2023/07/31 01:27:30;;;;;;;;;;;16.20;99.90;;;;;;4446090;32;20164;-66
2023/07/31 01:30:02;;;;;;;0.35;0.35;;;16.20;99.90;;;;;;4445767;32;20004;-66
2023/07/31 01:32:29;;;;;;;0.30;0.30;;;16.20;99.90;;;;;;4445865;32;20516;-65
2023/07/31 01:34:56;;;;;;;0.40;0.40;;;16.10;99.90;;;;;;4442598;32;20422;-66
2023/07/31 01:37:21;;;;;;;0.43;0.43;;;16.00;99.90;;;;;;4440296;32;20092;-66
2023/07/31 01:39:47;;;;;;;0.25;0.25;;;15.90;99.90;;;;;;4430904;32;20064;-66
2023/07/31 01:42:12;;;;;;;0.80;0.68;;;15.90;99.90;;;;;;4444606;32;20478;-66
2023/07/31 01:44:38;;;;;;;0.30;0.30;;;15.90;99.90;;;;;;4443004;32;20411;-66
2023/07/31 01:47:03;;;;;;;0.40;0.40;;;16.00;99.90;;;;;;4443176;32;20061;-66
2023/07/31 01:49:29;;;;;;;0.50;0.50;;;16.00;99.90;;;;;;4445228;32;20065;-66
2023/07/31 01:51:54;;;;;;;0.37;0.37;;;16.00;99.90;;;;;;4445053;32;20570;-66
2023/07/31 01:54:20;;;;;;;1.00;0.50;;;16.00;99.90;;;;;;4444905;32;20077;-64
2023/07/31 01:56:45;;;;;;;0.30;0.30;;;16.00;99.90;;;;;;4445318;32;20086;-66
2023/07/31 01:59:11;;;;;;;0.35;0.35;;;16.10;99.90;;;;;;4437431;32;20057;-66
2023/07/31 02:01:36;;;;;;;0.55;0.55;;;16.10;99.90;;;;;;4429704;32;20423;-65
2023/07/31 02:04:02;;;;;;;0.40;0.40;;;16.20;99.90;;;;;;4440368;32;20072;-66
2023/07/31 02:06:27;;;;;;;1.27;0.52;;;16.20;99.90;;;;;;4435220;32;20069;-66
2023/07/31 02:08:53;;;;;;;0.37;0.37;;;16.10;99.90;;;;;;4444287;32;20093;-66
2023/07/31 02:11:18;;;;;;;0.40;0.40;;;16.10;99.90;;;;;;4438202;32;20065;-66
2023/07/31 02:13:44;;;;;;;0.30;0.30;;;16.10;99.90;;;;;;4442902;32;20093;-66
2023/07/31 02:16:10;;;;;;;3.00;0.57;;;16.00;99.90;;;;;;4443655;32;20061;-66
2023/07/31 02:18:35;;;;;;;0.30;0.30;;;16.00;99.90;;;;;;4444572;32;20448;-66
2023/07/31 02:21:00;;;;;;;0.30;0.30;;;16.10;99.90;;;;;;4438685;32;20065;-66
2023/07/31 02:23:26;;;;;;;0.30;0.30;;;16.10;99.90;;;;;;4442566;32;20081;-66
2023/07/31 02:25:51;;;;;;;0.40;0.40;;;16.00;99.90;;;;;;4445209;32;20068;-66
2023/07/31 02:28:17;;;;;;;0.30;0.30;;;16.00;99.90;;;;;;4444393;32;20441;-66
2023/07/31 02:30:46;;;;;;;0.30;0.30;;;15.90;99.90;;;;;;4442700;32;20057;-66
2023/07/31 02:33:11;;;;;;;0.40;0.40;;;15.90;99.90;;;;;;4443908;32;20165;-64
2023/07/31 02:35:37;;;;;;;0.30;0.30;;;15.90;99.90;;;;;;4444816;32;20384;-66
2023/07/31 02:38:02;;;;;;;0.40;0.40;;;15.90;99.90;;;;;;4444770;32;20060;-65
2023/07/31 02:40:28;;;;;;;0.45;0.45;;;16.00;99.90;;;;;;4443172;32;20061;-66
2023/07/31 02:42:53;;;;;;;3.65;1.00;;;15.90;99.90;;;;;;4442089;32;20196;-66
2023/07/31 02:45:19;;;;;;;0.40;0.40;;;15.90;99.90;;;;;;4428558;32;20462;-66
2023/07/31 02:47:44;;;;;;;0.65;0.40;;;15.90;99.90;;;;;;4434139;32;20076;-66
2023/07/31 02:50:10;;;;;;;0.37;0.37;;;15.90;99.90;;;;;;4445566;32;20065;-66
2023/07/31 02:52:35;;;;;;;0.62;0.52;;;16.00;99.90;;;;;;4443819;32;20081;-66
2023/07/31 02:55:01;;;;;;;0.30;0.30;;;16.00;99.90;;;;;;4428083;32;20454;-66
2023/07/31 02:57:26;;;;;;;0.40;0.40;;;16.00;99.90;;;;;;4432171;32;20069;-66
2023/07/31 02:59:52;;;;;;;0.77;0.77;;;16.00;99.90;;;;;;4444362;32;20061;-66
2023/07/31 03:02:17;;;;;;;0.55;0.55;;;16.10;99.90;;;;;;4442559;32;20069;-66
2023/07/31 03:04:43;;;;;;;0.40;0.40;;;16.20;99.90;;;;;;4443629;32;20082;-66
2023/07/31 03:07:08;;;;;;;0.40;0.40;;;16.20;99.90;;;;;;4443916;32;20468;-66
2023/07/31 03:09:33;;;;;;;0.30;0.30;;;16.20;99.90;;;;;;4443404;32;20069;-66
2023/07/31 03:11:59;;;;;;;0.30;0.30;;;16.20;99.90;;;;;;4441510;32;20073;-66
2023/07/31 03:14:26;;;;;;;2.62;1.08;;;16.10;99.90;;;;;;4443564;32;20085;-66
2023/07/31 03:16:52;;;;;;;0.30;0.30;;;16.10;99.90;;;;;;4443959;32;20073;-66
2023/07/31 03:19:17;;;;;;;0.45;0.45;;;16.20;99.90;;;;;;4438580;32;20060;-66
2023/07/31 03:21:43;;;;;;;2.55;0.75;;;16.20;99.90;;;;;;4442730;32;20073;-66
2023/07/31 03:24:08;;;;;;;0.30;0.30;;;16.10;99.90;;;;;;4443877;32;20133;-66
2023/07/31 03:26:35;;;;;;;1.15;0.62;;;16.10;99.90;;;;;;4443441;32;20068;-66
2023/07/31 03:29:00;;;;;;;0.40;0.40;;;16.20;99.90;;;;;;4443433;32;20072;-66
2023/07/31 03:31:26;;;;;;;0.28;0.28;;;16.20;99.90;;;;;;4443144;32;20132;-64
2023/07/31 03:33:51;;;;;;;0.30;0.30;;;16.10;99.90;;;;;;4439802;32;20429;-63
2023/07/31 03:36:16;;;;;;;0.30;0.30;;;16.10;99.90;;;;;;4443949;32;20089;-65
2023/07/31 03:38:42;;;;;;;0.20;0.20;;;16.20;99.90;;;;;;4443004;32;20061;-65
2023/07/31 03:41:08;;;;;;;0.75;0.70;;;16.10;99.90;;;;;;4442077;32;20120;-65
2023/07/31 03:43:33;;;;;;;1.55;0.68;;;16.20;99.90;;;;;;4440964;32;20086;-65
2023/07/31 03:46:00;;;;;;;0.65;0.62;;;16.20;99.90;;;;;;4443225;32;20433;-65
2023/07/31 03:48:25;;;;;;;0.40;0.40;;;16.30;99.90;;;;;;4443024;32;20081;-65
2023/07/31 03:50:51;;;;;;;0.25;0.25;;;16.20;99.90;;;;;;4444648;32;20430;-65
2023/07/31 03:53:16;;;;;;;0.40;0.40;;;16.30;99.90;;;;;;4437941;32;20085;-66
2023/07/31 03:55:42;;;;;;;0.35;0.35;;;16.30;99.90;;;;;;4443819;32;20116;-65
2023/07/31 03:58:07;;;;;;;0.47;0.40;;;16.40;99.90;;;;;;4444424;32;20077;-65
2023/07/31 04:00:33;;;;;;;2.83;0.85;;;16.40;99.90;;;;;;4441383;32;20423;-64
2023/07/31 04:02:58;;;;;;;0.40;0.40;;;16.30;99.90;;;;;;4440157;32;20061;-65
2023/07/31 04:05:24;;;;;;;1.30;0.73;;;16.20;99.90;;;;;;4442392;32;20064;-65
2023/07/31 04:07:49;;;;;;;0.30;0.30;;;16.30;99.90;;;;;;4444139;32;20068;-65
2023/07/31 04:10:15;;;;;;;0.40;0.40;;;16.30;99.90;;;;;;4443792;32;20068;-65
2023/07/31 04:12:40;;;;;;;0.28;0.28;;;16.30;99.90;;;;;;4443364;32;20179;-64
2023/07/31 04:15:06;;;;;;;0.30;0.30;;;16.30;99.90;;;;;;4442818;32;20088;-65
2023/07/31 04:17:32;;;;;;;0.40;0.40;;;16.30;99.90;;;;;;4441914;32;20450;-64
2023/07/31 04:19:57;;;;;;;0.80;0.60;;;16.20;99.90;;;;;;4442633;32;20062;-65
2023/07/31 04:22:23;;;;;;;0.52;0.50;;;16.30;99.90;;;;;;4438228;32;20180;-65
2023/07/31 04:24:48;;;;;;;1.27;0.50;;;16.30;99.90;;;;;;4443000;32;20082;-65
2023/07/31 04:27:13;;;;;;;0.40;0.40;;;16.30;99.90;;;;;;4442103;32;20061;-65
2023/07/31 04:29:42;;;;;;;0.32;0.32;;;16.20;99.90;;;;;;4435031;32;20073;-66
2023/07/31 04:32:08;;;;;;;1.10;0.80;;;16.40;99.90;;;;;;4427653;32;20521;-66
2023/07/31 04:34:33;;;;;;;0.40;0.40;;;16.40;99.90;;;;;;4437477;32;20120;-66
2023/07/31 04:36:58;;;;;;;0.30;0.30;;;16.40;99.90;;;;;;4443825;32;20096;-66
2023/07/31 04:39:24;;;;;;;2.45;1.45;;;16.40;99.90;;;;;;4439551;32;20508;-66
2023/07/31 04:41:49;;;;;;;0.30;0.30;;;16.40;99.90;;;;;;4442573;32;20124;-66
2023/07/31 04:44:15;;;;;;;1.25;0.70;;;16.30;99.90;;;;;;4439653;32;20069;-66
2023/07/31 04:46:40;;;;;;;0.30;0.30;;;16.30;99.90;;;;;;4441616;32;20065;-66
2023/07/31 04:49:06;;;;;;;0.40;0.40;;;16.20;99.90;;;;;;4439621;32;20687;-65
2023/07/31 04:51:31;;;;;;;0.40;0.40;;;16.10;99.90;;;;;;4447218;32;20077;-64
2023/07/31 04:53:57;;;;;;;0.40;0.40;;;16.10;99.90;;;;;;4445075;32;20139;-63
2023/07/31 04:56:22;;;;;;;0.45;0.45;;;16.20;99.90;;;;;;4450097;32;20073;-64
2023/07/31 04:58:48;;;;;;;1.58;0.95;;;16.20;99.90;;;;;;4453906;32;20080;-63
2023/07/31 05:01:13;;;;;;;0.50;0.50;;;16.20;99.90;;;;;;4448490;32;20078;-64
2023/07/31 05:03:38;;;;;;;0.50;0.50;;;16.20;99.90;;;;;;4443502;32;20081;-63
2023/07/31 05:06:04;;;;;;;0.60;0.60;;;16.30;99.90;;;;;;4450674;32;20086;-63
2023/07/31 05:08:29;;;;;;;1.85;0.60;;;16.40;99.90;;;;;;4452187;32;20449;-64
2023/07/31 05:10:55;;;;;;;2.45;0.90;;;16.50;99.90;;;;;;4452068;32;20065;-63
2023/07/31 05:13:20;;;;;;;0.40;0.40;;;16.50;99.90;;;;;;4451909;32;20068;-62
2023/07/31 05:15:46;;;;;;;1.20;1.10;;;16.40;99.90;;;;;;4446780;32;20072;-62
2023/07/31 05:18:11;;;;;;;0.30;0.30;;;16.50;99.90;;;;;;4447064;32;20065;-63
2023/07/31 05:20:37;;;;;;;0.30;0.30;;;16.50;99.90;;;;;;4440486;32;20078;-62
2023/07/31 05:23:02;;;;;;;1.58;1.23;;;16.50;99.90;;;;;;4440059;32;20086;-63
2023/07/31 05:25:28;;;;;;;3.50;1.15;;;16.50;99.90;;;;;;4449761;32;20089;-63
2023/07/31 05:27:53;;;;;;;0.50;0.43;;;16.50;99.90;;;;;;4457909;32;20104;-63
2023/07/31 05:30:19;;;;;;;0.30;0.30;;;16.60;99.90;;;;;;4452206;32;20082;-64
2023/07/31 05:32:45;;;;;;;0.50;0.50;;;16.70;99.90;;;;;;4443525;32;20077;-63
2023/07/31 05:35:10;;;;;;;0.40;0.40;;;16.70;99.90;;;;;;4450264;32;20053;-62
2023/07/31 05:37:36;;;;;;;0.25;0.25;;;16.60;99.90;;;;;;4446396;32;20065;-63
2023/07/31 05:40:01;;;;;;;2.53;0.98;;;16.70;99.90;;;;;;4459013;32;20147;-63
2023/07/31 05:42:27;;;;;;;0.30;0.30;;;16.70;99.90;;;;;;4454243;32;20219;-63
2023/07/31 05:44:52;;;;;;;0.28;0.28;;;16.80;99.90;;;;;;4450795;32;20073;-64
2023/07/31 05:47:18;;;;;;;0.30;0.30;;;16.70;99.90;;;;;;4460263;32;20077;-62
2023/07/31 05:49:44;;;;;;;0.40;0.40;;;16.70;99.90;;;;;;4459187;32;20073;-63
2023/07/31 05:52:09;;;;;;;0.57;0.57;;;16.70;99.90;;;;;;4455671;32;20115;-63
2023/07/31 05:54:35;;;;;;;0.85;0.85;;;16.60;99.90;;;;;;4457734;32;20049;-62
2023/07/31 05:57:00;;;;;;;3.33;1.40;;;16.70;99.90;;;;;;4458367;32;20057;-63
2023/07/31 05:59:26;;;;;;;0.40;0.40;;;16.70;99.90;;;;;;4460266;32;20533;-63
2023/07/31 06:01:53;;;;;;;2.20;0.50;;;16.70;99.90;;;;;;4461427;32;20080;-63
2023/07/31 06:04:18;;;;;;;0.37;0.37;;;16.70;99.90;;;;;;4460617;32;20057;-62
2023/07/31 06:06:44;;;;;;;0.50;0.50;;;16.70;99.90;;;;;;4455276;32;20061;-62
2023/07/31 06:09:09;;;;;;;0.28;0.28;;;16.80;99.90;;;;;;4447717;32;20080;-62
2023/07/31 06:11:35;;;;;;;25.98;1.85;;;16.70;99.90;;;;;;4449203;32;20069;-62
2023/07/31 06:14:00;;;;;;;0.40;0.40;;;16.70;99.90;;;;;;4462557;32;20057;-63
2023/07/31 06:16:27;;;;;;;0.30;0.30;;;16.70;99.90;;;;;;4463058;32;20091;-62
2023/07/31 06:18:52;;;;;;;0.82;0.68;;;16.70;99.90;;;;;;4458244;32;20085;-62
2023/07/31 06:21:18;;;;;;;0.40;0.40;;;16.70;99.90;;;;;;4463720;32;20084;-63
2023/07/31 06:23:43;;;;;;;0.40;0.40;;;16.80;99.90;;;;;;4462912;32;20061;-64
2023/07/31 06:26:09;;;;;;;0.88;0.47;;;16.90;99.90;;;;;;4463229;32;20057;-62
2023/07/31 06:28:34;;;;;;;0.75;0.75;;;16.90;99.90;;;;;;4462552;32;20089;-62
2023/07/31 06:31:00;;;;;;;0.62;0.60;;;16.90;99.90;;;;;;4462978;32;20072;-62
2023/07/31 06:33:26;;;;;;;0.40;0.40;;;17.00;99.90;;;;;;4462611;32;20049;-63
2023/07/31 06:35:52;;;;;;;0.43;0.43;;;16.90;99.90;;;;;;4462097;32;20138;-63
2023/07/31 06:38:24;;;;;;;1.17;0.62;;;16.90;99.90;;;;;;4461979;32;20025;-63
2023/07/31 06:40:49;;;;;;;1.55;0.93;;;17.00;99.90;;;;;;4447054;32;20045;-62
2023/07/31 06:43:15;;;;;;;0.30;0.30;;;16.90;99.90;;;;;;4462159;32;20049;-62
2023/07/31 06:45:40;;;;;;;0.95;0.88;;;16.90;99.90;;;;;;4464039;32;20080;-62
2023/07/31 06:48:05;;;;;;;0.30;0.30;;;16.80;99.90;;;;;;4461528;32;20065;-63
2023/07/31 06:50:31;;;;;;;0.30;0.30;;;16.80;99.90;;;;;;4462641;32;20033;-63
2023/07/31 06:52:57;;;;;;;2.60;0.90;;;16.90;99.90;;;;;;4451036;32;20061;-65
2023/07/31 06:55:24;;;;;;;0.43;0.43;;;16.90;99.90;;;;;;4434370;32;20069;-65
2023/07/31 06:57:51;;;;;;;0.40;0.40;;;17.00;99.90;;;;;;4432617;32;20065;-65
2023/07/31 07:00:19;;;;;;;0.35;0.32;;;17.00;99.90;;;;;;4444428;32;20155;-65
2023/07/31 07:02:44;;;;;;;0.30;0.30;;;16.90;99.90;;;;;;4443991;32;20077;-65
2023/07/31 07:05:10;;;;;;;0.52;0.52;;;16.90;99.90;;;;;;4443413;32;20061;-65
2023/07/31 07:07:36;;;;;;;0.20;0.20;;;16.80;99.90;;;;;;4433830;32;20090;-65
2023/07/31 07:10:03;;;;;;;0.30;0.30;;;16.90;99.90;;;;;;4443921;32;20434;-66
2023/07/31 07:12:31;;;;;;;0.40;0.40;;;16.90;99.90;;;;;;4443522;32;20081;-66
2023/07/31 07:14:57;;;;;;;0.52;0.52;;;16.90;99.90;;;;;;4441829;32;20073;-65
2023/07/31 07:17:23;;;;;;;0.30;0.30;;;16.90;99.90;;;;;;4442738;32;20090;-66
2023/07/31 07:19:49;;;;;;;0.30;0.30;;;16.90;99.90;;;;;;4443607;32;20081;-65
2023/07/31 07:22:14;;;;;;;0.37;0.37;;;16.80;99.90;;;;;;4444882;32;20073;-66
2023/07/31 07:24:40;;;;;;;2.87;0.90;;;16.90;99.90;;;;;;4443503;32;20415;-66
2023/07/31 07:27:06;;;;;;;0.40;0.40;;;17.00;99.90;;;;;;4444361;32;20110;-66
2023/07/31 07:29:31;;;;;;;0.40;0.40;;;17.00;99.90;;;;;;4442698;32;20157;-66
2023/07/31 07:31:57;;;;;;;1.85;0.95;;;17.00;99.90;;;;;;4440658;32;20125;-65
2023/07/31 07:34:25;;;;;;;1.75;0.60;;;17.00;99.90;;;;;;4444303;32;20069;-65
2023/07/31 07:36:50;;;;;;;2.42;1.52;;;17.10;99.90;;;;;;4444484;32;20064;-66
2023/07/31 07:39:15;;;;;;;0.57;0.57;;;17.10;99.90;;;;;;4444073;32;20138;-65
2023/07/31 07:41:41;;;;;;;0.62;0.62;;;17.00;99.90;;;;;;4443650;32;20072;-65
2023/07/31 07:44:08;;;;;;;0.30;0.30;;;17.10;99.90;;;;;;4443508;32;20073;-65
2023/07/31 07:46:33;;;;;;;0.57;0.57;;;17.20;99.90;;;;;;4442199;32;20529;-65
2023/07/31 07:48:58;;;;;;;0.30;0.30;;;17.20;99.90;;;;;;4442998;32;20088;-66
2023/07/31 07:51:24;;;;;;;0.40;0.40;;;17.40;99.90;;;;;;4443967;32;20587;-66
2023/07/31 07:53:49;;;;;;;0.30;0.30;;;17.30;99.90;;;;;;4443240;32;20417;-65
2023/07/31 07:56:15;;;;;;;0.30;0.30;;;17.30;99.90;;;;;;4443888;32;20127;-65
2023/07/31 07:58:40;;;;;;;0.52;0.40;;;17.30;99.90;;;;;;4442876;32;20073;-66
2023/07/31 08:01:06;;;;;;;0.50;0.50;;;17.30;99.90;;;;;;4443817;32;20069;-66
2023/07/31 08:03:31;;;;;;;0.35;0.35;;;17.20;99.90;;;;;;4443167;32;20078;-65
2023/07/31 08:06:00;;;;;;;0.50;0.50;;;17.30;99.90;;;;;;4441707;32;20074;-66
2023/07/31 08:08:28;;;;;;;0.70;0.40;;;17.20;99.90;;;;;;4427991;32;20081;-66
2023/07/31 08:10:53;;;;;;;0.30;0.30;;;17.20;99.90;;;;;;4429032;32;20077;-65
2023/07/31 08:13:19;;;;;;;0.40;0.40;;;17.20;99.90;;;;;;4440059;32;20072;-65
2023/07/31 08:15:44;;;;;;;0.62;0.62;;;17.10;99.90;;;;;;4444153;32;20076;-66
2023/07/31 08:18:11;;;;;;;0.30;0.30;;;17.00;99.90;;;;;;4443267;32;20069;-66
2023/07/31 08:20:37;;;;;;;0.40;0.40;;;17.10;99.90;;;;;;4443560;32;20081;-65
2023/07/31 08:23:03;;;;;;;0.37;0.37;;;17.10;99.90;;;;;;4442640;32;20508;-65
2023/07/31 08:25:29;;;;;;;0.30;0.30;;;17.00;99.90;;;;;;4442850;32;20082;-66
2023/07/31 08:27:55;;;;;;;0.30;0.30;;;17.00;99.90;;;;;;4443149;32;20064;-65
2023/07/31 08:30:21;;;;;;;0.35;0.35;;;17.10;99.90;;;;;;4442864;32;20136;-66
2023/07/31 08:32:46;;;;;;;0.40;0.40;;;17.20;99.90;;;;;;4436602;32;20085;-65
2023/07/31 08:35:12;;;;;;;0.40;0.40;;;17.20;99.90;;;;;;4442377;32;20082;-65
2023/07/31 08:37:38;;;;;;;1.85;0.60;;;17.30;99.90;;;;;;4443352;32;20161;-65
2023/07/31 08:40:05;;;;;;;0.68;0.65;;;17.40;99.90;;;;;;4442584;32;20142;-65
2023/07/31 08:42:30;;;;;;;0.40;0.40;;;17.50;99.90;;;;;;4442206;32;20169;-64
2023/07/31 08:44:57;;;;;;;0.37;0.35;;;17.60;99.90;;;;;;4442682;32;20521;-64
2023/07/31 08:47:24;;;;;;;0.68;0.40;;;17.60;99.90;;;;;;4442723;32;20533;-65
2023/07/31 08:49:50;;;;;;;0.30;0.30;;;17.50;99.90;;;;;;4442646;32;20061;-64
2023/07/31 08:52:16;;;;;;;0.40;0.40;;;17.50;99.90;;;;;;4442542;32;20065;-64
2023/07/31 08:54:41;;;;;;;0.20;0.20;;;17.50;99.90;;;;;;4442747;32;20529;-66
2023/07/31 08:57:08;;;;;;;1.17;0.50;;;17.50;99.90;;;;;;4443287;32;20060;-66
2023/07/31 08:59:35;;;;;;;0.65;0.62;;;17.50;99.90;;;;;;4442054;32;20061;-67
2023/07/31 09:02:07;;;;;;;0.30;0.30;;;17.60;99.90;;;;;;4443448;32;20120;-66
2023/07/31 09:04:33;;;;;;;0.40;0.40;;;17.60;99.90;;;;;;4445920;32;20090;-65
2023/07/31 09:07:04;;;;;;;0.40;0.40;;;17.70;99.90;;;;;;4447093;32;20447;-66
2023/07/31 09:09:30;;;;;;;0.40;0.40;;;17.70;99.90;;;;;;4444385;32;20065;-66
2023/07/31 09:11:57;;;;;;;1.10;0.40;;;17.80;99.90;;;;;;4445337;32;20072;-65
2023/07/31 09:14:24;;;;;;;0.30;0.30;;;17.90;99.90;;;;;;4445153;32;20085;-66
2023/07/31 09:16:55;;;;;;;0.30;0.30;;;18.00;99.90;;;;;;4446508;32;20078;-65
2023/07/31 09:19:29;;;;;;;;;;;17.90;99.90;;;;;;4446548;32;20073;-66
2023/07/31 09:21:55;;;;;;;0.20;0.20;;;17.90;99.90;;;;;;4446119;32;20036;-66
2023/07/31 09:24:36;;;;;;;0.35;0.35;;;17.90;99.90;;;;;;4444943;32;20049;-66
2023/07/31 09:27:01;;;;;;;0.32;0.32;;;17.70;99.90;;;;;;4444796;32;20102;-67
2023/07/31 09:29:29;;;;;;;0.30;0.30;;;17.70;99.90;;;;;;4442850;32;20193;-66
2023/07/31 09:31:55;;;;;;;0.20;0.20;;;17.60;99.90;;;;;;4433974;32;20149;-66
2023/07/31 09:34:28;;;;;;;0.30;0.30;;;17.70;99.90;;;;;;4438278;32;20106;-66
2023/07/31 09:36:53;;;;;;;0.20;0.20;;;17.70;99.90;;;;;;4444121;32;20069;-66
2023/07/31 09:39:20;;;;;;;0.20;0.20;;;17.60;99.90;;;;;;4442858;32;20536;-66
2023/07/31 09:41:53;;;;;;;0.30;0.30;;;17.70;99.90;;;;;;4444636;32;20073;-66
2023/07/31 09:44:19;;;;;;;0.30;0.30;;;17.80;99.90;;;;;;4444750;32;20081;-66
2023/07/31 09:46:45;;;;;;;0.20;0.20;;;17.70;99.90;;;;;;4444555;32;20076;-66
2023/07/31 09:49:12;;;;;;;0.30;0.30;;;17.80;99.90;;;;;;4444678;32;20131;-66
2023/07/31 09:51:38;;;;;;;0.30;0.30;;;17.80;99.90;;;;;;4443633;32;20130;-66
2023/07/31 09:54:12;;;;;;;0.35;0.22;;;17.80;99.90;;;;;;4445729;32;20064;-66
2023/07/31 09:56:45;;;;;;;0.30;0.30;;;17.70;99.90;;;;;;4444053;32;20081;-65
2023/07/31 09:59:13;;;;;;;2.85;0.88;;;17.70;99.90;;;;;;4444098;32;20069;-66
2023/07/31 10:01:41;;;;;;;0.35;0.35;;;17.80;99.90;;;;;;4444231;32;20061;-66
2023/07/31 10:04:09;;;;;;;0.30;0.30;;;17.80;99.90;;;;;;4443231;32;20065;-66
2023/07/31 10:06:36;;;;;;;0.73;0.62;;;17.80;99.90;;;;;;4443824;32;20073;-66
2023/07/31 10:09:07;;;;;;;1.20;1.00;;;17.90;99.90;;;;;;4445609;32;20120;-66
2023/07/31 10:11:37;;;;;;;;;;;18.00;99.90;;;;;;4445247;32;20600;-65
2023/07/31 10:14:03;;;;;;;0.22;0.22;;;18.00;99.90;;;;;;4445502;32;19956;-66
2023/07/31 10:16:29;;;;;;;0.50;0.50;;;18.10;99.90;;;;;;4443895;32;20068;-66
2023/07/31 10:18:55;;;;;;;3.87;0.65;;;18.00;99.90;;;;;;4444519;32;20057;-66
2023/07/31 10:21:21;;;;;;;0.40;0.40;;;18.10;99.90;;;;;;4444795;32;20062;-66
2023/07/31 10:23:47;;;;;;;1.33;0.75;;;18.20;99.90;;;;;;4444305;32;20057;-65
2023/07/31 10:26:14;;;;;;;0.40;0.40;;;18.20;99.90;;;;;;4445538;32;20488;-65
2023/07/31 10:28:40;;;;;;;0.40;0.40;;;18.30;99.90;;;;;;4444210;32;20090;-66
2023/07/31 10:31:06;;;;;;;0.70;0.70;;;18.50;99.90;;;;;;4444105;32;20142;-66
2023/07/31 10:33:32;;;;;;;0.30;0.30;;;18.50;99.90;;;;;;4443761;32;20134;-66
2023/07/31 10:36:17;;;;;;;0.40;0.40;;;18.60;99.90;;;;;;4443985;32;20591;-66
2023/07/31 10:38:42;;;;;;;0.40;0.37;;;18.80;99.90;;;;;;4443286;32;20135;-65
2023/07/31 10:41:09;;;;;;;0.95;0.57;;;19.10;99.90;;;;;;4444396;32;20265;-65
2023/07/31 10:43:37;;;;;;;0.40;0.40;;;19.40;99.90;;;;;;4443626;32;20564;-66
2023/07/31 10:46:08;;;;;;;0.30;0.30;;;19.70;99.90;;;;;;4443878;32;20268;-65
2023/07/31 10:48:34;;;;;;;0.20;0.20;;;20.10;99.90;;;;;;4443997;32;20119;-66
2023/07/31 10:51:00;;;;;;;0.43;0.43;;;20.50;99.90;;;;;;4445148;32;20061;-66
2023/07/31 10:53:31;;;;;;;12.30;0.40;;;20.80;99.90;;;;;;4442704;32;20082;-66
2023/07/31 10:55:59;;;;;;;0.40;0.40;;;21.10;99.90;;;;;;4445157;32;20116;-66
2023/07/31 10:58:24;;;;;;;0.30;0.30;;;21.40;99.90;;;;;;4444840;32;20056;-65
2023/07/31 11:00:56;;;;;;;0.98;0.57;;;21.60;99.90;;;;;;4444021;32;20093;-66
2023/07/31 11:03:25;;;;;;;0.37;0.35;;;21.70;99.90;;;;;;4444943;32;20065;-66
2023/07/31 11:05:53;;;;;;;0.40;0.40;;;21.90;99.90;;;;;;4442979;32;20064;-65
2023/07/31 11:08:24;;;;;;;0.20;0.20;;;21.70;99.90;;;;;;4430234;32;20057;-65
2023/07/31 11:11:05;;;;;;;0.30;0.30;;;21.50;99.90;;;;;;4443654;32;20057;-66
2023/07/31 11:13:32;;;;;;;0.32;0.32;;;21.20;99.90;;;;;;4445114;32;20791;-65
2023/07/31 11:15:59;;;;;;;0.30;0.30;;;21.00;99.90;;;;;;4444078;32;20102;-65
2023/07/31 11:18:26;;;;;;;0.25;0.25;;;20.90;99.90;;;;;;4443800;32;20089;-65
2023/07/31 11:20:52;;;;;;;1.62;0.85;;;20.90;99.90;;;;;;4443277;32;20119;-66
2023/07/31 11:23:19;;;;;;;4.10;1.05;;;20.80;99.90;;;;;;4438547;32;20088;-66
2023/07/31 11:25:45;;;;;;;0.20;0.20;;;20.80;99.90;;;;;;4434812;32;20123;-65
2023/07/31 11:28:12;;;;;;;0.20;0.20;;;21.00;99.90;;;;;;4446181;32;20069;-65
2023/07/31 11:30:39;;;;;;;0.98;0.47;;;21.00;99.90;;;;;;4462906;26;20053;-75
2023/07/31 11:33:06;;;;;;;0.10;0.10;;;20.80;99.90;;;;;;4380436;32;20086;-73
2023/07/31 11:35:33;;;;;;;2.12;0.90;;;20.90;99.90;;;;;;4377942;32;20071;-74
2023/07/31 11:37:59;;;;;;;1.00;0.40;;;20.90;99.90;;;;;;4368258;32;20067;-74
2023/07/31 11:40:29;;;;;;;0.47;0.35;;;20.80;99.90;;;;;;4377080;32;20142;-74
2023/07/31 11:42:57;;;;;;;0.30;0.30;;;20.70;99.90;;;;;;4382856;32;20446;-74
2023/07/31 11:45:26;;;;;;;0.20;0.20;;;20.60;99.90;;;;;;4382836;32;20058;-73
2023/07/31 11:47:51;;;;;;;0.32;0.32;;;20.60;99.90;;;;;;4380590;32;114363;-73
2023/07/31 11:50:17;;;;;;;0.30;0.30;;;20.70;99.90;;;;;;4376056;32;20073;-74
2023/07/31 11:52:45;;;;;;;0.32;0.30;;;20.70;99.90;;;;;;4377326;32;20459;-75
2023/07/31 11:55:12;;;;;;;0.90;0.85;;;20.70;99.90;;;;;;4382633;32;20130;-73
2023/07/31 11:57:40;;;;;;;0.20;0.20;;;20.60;99.90;;;;;;4382549;32;20058;-73
2023/07/31 12:00:09;;;;;;;0.50;0.50;;;20.50;99.90;;;;;;4378187;32;20503;-74
2023/07/31 12:02:35;;;;;;;0.30;0.30;;;20.40;99.90;;;;;;4381542;32;20121;-73
2023/07/31 12:05:01;;;;;;;0.30;0.30;;;20.50;99.90;;;;;;4382481;32;20521;-74
2023/07/31 12:07:26;;;;;;;0.65;0.65;;;20.50;99.90;;;;;;4371356;32;20526;-73
2023/07/31 12:09:53;;;;;;;0.90;0.37;;;20.60;99.90;;;;;;4370059;32;20138;-73
2023/07/31 12:12:21;;;;;;;0.20;0.20;;;20.60;99.90;;;;;;4367665;32;20075;-74
2023/07/31 12:14:47;;;;;;;0.30;0.30;;;20.60;99.90;;;;;;4367741;32;20429;-74
2023/07/31 12:17:14;;;;;;;0.30;0.30;;;20.70;99.90;;;;;;4367679;32;20058;-74
2023/07/31 12:19:40;;;;;;;0.40;0.40;;;20.70;99.90;;;;;;4368551;32;20094;-73
2023/07/31 12:22:21;;;;;;;0.22;0.22;;;20.80;99.90;;;;;;4382090;32;20219;-73
2023/07/31 12:24:46;;;;;;;0.30;0.30;;;20.70;99.90;;;;;;4382710;32;20078;-73
2023/07/31 12:27:14;;;;;;;0.30;0.30;;;20.70;99.90;;;;;;4382246;32;20086;-72
2023/07/31 12:29:40;;;;;;;0.60;0.40;;;20.60;99.90;;;;;;4374839;32;20070;-75
2023/07/31 12:32:20;;;;;;;0.70;0.70;;;20.70;99.90;;;;;;4379364;32;20078;-73
2023/07/31 12:34:45;;;;;;;0.35;0.35;;;20.60;99.90;;;;;;4384330;32;20074;-73
2023/07/31 12:37:11;;;;;;;0.25;0.25;;;20.70;99.90;;;;;;4384713;32;20078;-72
2023/07/31 12:39:36;;;;;;;2.28;0.90;;;20.80;99.90;;;;;;4384361;32;20069;-73
2023/07/31 12:42:02;;;;;;;0.98;0.30;;;21.10;99.90;;;;;;4383806;32;20066;-73
2023/07/31 12:44:27;;;;;;;0.20;0.20;;;21.50;99.90;;;;;;4380977;32;20125;-72